Cochrane — D5HE9 — position and weather

sailwx.info

Track history (hours):
 
Tides and Currents Weather Stations Pressure Air Temp Water Temp Dewpoint Dewpoint Depression Visibility Wind Speed Wind Dir Waves Ship Positions

Cochrane

Last reported at 2017-Nov-23 23:29 UTC. Time now 2017-Dec-15 16:10 UTC.
Position N 34°47' E 140°08'.
Warning: this ship's position is 21 days out of date.

Length 300 m; draft 9 m.

Type: Cargo ship. MMSI: 636016664.

Date/timePositionNaut miles runAvg speedWind from/ knotsBaromVisibWave heightAir tempDewpointWater temp
2017-Nov-23 23:29N 34°47' E 140°08'1121.0
2017-Nov-23 22:58N 34°46' E 139°54'818.3
2017-Nov-23 22:31N 34°51' E 139°46'1020.0
2017-Nov-23 22:01N 34°60' E 139°41'713.3
2017-Nov-23 21:30N 35°06' E 139°44'4 8.7
2017-Nov-23 21:00N 35°10' E 139°45'510.3
2017-Nov-23 20:30N 35°16' E 139°46'713.0
2017-Nov-23 20:00N 35°21' E 139°42'3 5.9
2017-Nov-23 19:30N 35°24' E 139°41'0 0.8
2017-Nov-23 18:58N 35°24' E 139°41'0 0.0
2017-Nov-23 18:28N 35°24' E 139°41'0 0.0
2017-Nov-23 17:58N 35°24' E 139°41'0 0.0
2017-Nov-23 17:28N 35°24' E 139°41'0 0.0
2017-Nov-23 16:58N 35°24' E 139°41'0 0.0
2017-Nov-23 16:28N 35°24' E 139°41'0 0.0
2017-Nov-23 15:58N 35°24' E 139°41'0 0.0
2017-Nov-23 15:28N 35°24' E 139°41'0 0.0
2017-Nov-23 14:55N 35°24' E 139°41'0 0.0
2017-Nov-23 14:28N 35°24' E 139°41'0 0.0
2017-Nov-23 13:58N 35°24' E 139°41'0 0.0
2017-Nov-23 13:28N 35°24' E 139°41'0 0.0
2017-Nov-23 12:58N 35°24' E 139°41'0 0.0
2017-Nov-23 12:28N 35°24' E 139°41'0 0.0
2017-Nov-23 11:58N 35°24' E 139°41'0 0.0
2017-Nov-23 11:28N 35°24' E 139°41'0 0.0
2017-Nov-23 10:58N 35°24' E 139°41'0 0.4
2017-Nov-23 10:31N 35°24' E 139°41'2 4.5
2017-Nov-23 10:01N 35°22' E 139°42'5 9.4
2017-Nov-23 09:30N 35°18' E 139°45'612.3
2017-Nov-23 09:00N 35°12' E 139°47'4 8.9
2017-Nov-23 08:31N 35°08' E 139°46'5 9.7
2017-Nov-23 08:00N 35°03' E 139°45'510.8
2017-Nov-23 07:30N 34°58' E 139°41'611.6
2017-Nov-23 07:00N 34°53' E 139°38'612.4
2017-Nov-23 06:30N 34°48' E 139°34'712.6
2017-Nov-23 05:55N 34°41' E 139°30'  
2017-Nov-19 03:55N 30°33' E 122°17'612.0
2017-Nov-19 03:27N 30°34' E 122°10'5 3.0
2017-Nov-19 01:40N 30°36' E 122°05'0 0.0
2017-Nov-17 15:23N 30°36' E 122°05'0 0.0
2017-Nov-17 14:56N 30°36' E 122°05'0 0.0
2017-Nov-17 12:13N 30°36' E 122°05'0 0.3
2017-Nov-17 10:37N 30°36' E 122°05'1 6.6
2017-Nov-17 10:29N 30°36' E 122°06'5 9.8
2017-Nov-17 10:00N 30°34' E 122°11'  
Track history (hours):
 
Tides and Currents Weather Stations Pressure Air Temp Water Temp Dewpoint Dewpoint Depression Visibility Wind Speed Wind Dir Waves Ship Positions

Cochrane

Last reported at 2017-Nov-23 23:29 UTC. Time now 2017-Dec-15 16:10 UTC.
Position N 34°47' E 140°08'.
Warning: this ship's position is 21 days out of date.

Length 300 m; draft 9 m.

Type: Cargo ship. MMSI: 636016664.

Date/timePositionNaut miles runAvg speedWind from/ knotsBaromVisibWave heightAir tempDewpointWater temp
2017-Nov-23 23:29N 34°47' E 140°08'1121.0
2017-Nov-23 22:58N 34°46' E 139°54'818.3
2017-Nov-23 22:31N 34°51' E 139°46'1020.0
2017-Nov-23 22:01N 34°60' E 139°41'713.3
2017-Nov-23 21:30N 35°06' E 139°44'4 8.7
2017-Nov-23 21:00N 35°10' E 139°45'510.3
2017-Nov-23 20:30N 35°16' E 139°46'713.0
2017-Nov-23 20:00N 35°21' E 139°42'3 5.9
2017-Nov-23 19:30N 35°24' E 139°41'0 0.8
2017-Nov-23 18:58N 35°24' E 139°41'0 0.0
2017-Nov-23 18:28N 35°24' E 139°41'0 0.0
2017-Nov-23 17:58N 35°24' E 139°41'0 0.0
2017-Nov-23 17:28N 35°24' E 139°41'0 0.0
2017-Nov-23 16:58N 35°24' E 139°41'0 0.0
2017-Nov-23 16:28N 35°24' E 139°41'0 0.0
2017-Nov-23 15:58N 35°24' E 139°41'0 0.0
2017-Nov-23 15:28N 35°24' E 139°41'0 0.0
2017-Nov-23 14:55N 35°24' E 139°41'0 0.0
2017-Nov-23 14:28N 35°24' E 139°41'0 0.0
2017-Nov-23 13:58N 35°24' E 139°41'0 0.0
2017-Nov-23 13:28N 35°24' E 139°41'0 0.0
2017-Nov-23 12:58N 35°24' E 139°41'0 0.0
2017-Nov-23 12:28N 35°24' E 139°41'0 0.0
2017-Nov-23 11:58N 35°24' E 139°41'0 0.0
2017-Nov-23 11:28N 35°24' E 139°41'0 0.0
2017-Nov-23 10:58N 35°24' E 139°41'0 0.4
2017-Nov-23 10:31N 35°24' E 139°41'2 4.5
2017-Nov-23 10:01N 35°22' E 139°42'5 9.4
2017-Nov-23 09:30N 35°18' E 139°45'612.3
2017-Nov-23 09:00N 35°12' E 139°47'4 8.9
2017-Nov-23 08:31N 35°08' E 139°46'5 9.7
2017-Nov-23 08:00N 35°03' E 139°45'510.8
2017-Nov-23 07:30N 34°58' E 139°41'611.6
2017-Nov-23 07:00N 34°53' E 139°38'612.4
2017-Nov-23 06:30N 34°48' E 139°34'712.6
2017-Nov-23 05:55N 34°41' E 139°30'  
2017-Nov-19 03:55N 30°33' E 122°17'612.0
2017-Nov-19 03:27N 30°34' E 122°10'5 3.0
2017-Nov-19 01:40N 30°36' E 122°05'0 0.0
2017-Nov-17 15:23N 30°36' E 122°05'0 0.0
2017-Nov-17 14:56N 30°36' E 122°05'0 0.0
2017-Nov-17 12:13N 30°36' E 122°05'0 0.3
2017-Nov-17 10:37N 30°36' E 122°05'1 6.6
2017-Nov-17 10:29N 30°36' E 122°06'5 9.8
2017-Nov-17 10:00N 30°34' E 122°11'  

Dump ship's entire track history